Time;durP1;ratioP1;P1;durP2;ratioP2;P2;SDS_P1;SDS_P2;PMS_P1;PMS_P2;Temp;Humidity;BMP_temperature;BMP_pressure;BME280_temperature;BME280_humidity;BME280_pressure;Samples;Min_cycle;Max_cycle;Signal;HPM_P1;HPM_P2
2022/09/06 00:02:15;;;;;;;7.67;2.93;;;19.60;27.30;;;;;;5072784;28;20470;-83
2022/09/06 00:04:42;;;;;;;8.30;3.20;;;19.50;29.00;;;;;;5072426;28;20454;-83
2022/09/06 00:07:08;;;;;;;9.80;3.70;;;19.50;30.00;;;;;;5072886;28;20450;-83
2022/09/06 00:09:36;;;;;;;8.30;2.90;;;19.60;34.80;;;;;;5072385;28;20477;-82
2022/09/06 00:12:03;;;;;;;9.20;3.10;;;19.20;50.90;;;;;;5072764;28;20460;-82
2022/09/06 00:14:30;;;;;;;16.47;3.43;;;19.00;52.30;;;;;;5072722;28;20460;-82
2022/09/06 00:16:57;;;;;;;6.90;3.23;;;18.90;52.20;;;;;;5072427;28;20464;-82
2022/09/06 00:19:23;;;;;;;11.73;3.97;;;18.80;55.50;;;;;;5073902;28;20506;-81
2022/09/06 00:21:50;;;;;;;8.63;3.93;;;18.70;62.40;;;;;;5072450;28;20940;-81
2022/09/06 00:24:17;;;;;;;10.73;3.70;;;18.40;62.50;;;;;;5072243;28;20467;-82
2022/09/06 00:26:45;;;;;;;11.13;4.30;;;18.30;62.50;;;;;;5072526;28;20460;-81
2022/09/06 00:29:11;;;;;;;12.47;4.47;;;18.30;60.30;;;;;;5072444;28;20542;-81
2022/09/06 00:31:38;;;;;;;7.97;4.00;;;18.30;63.70;;;;;;5072109;28;20455;-82
2022/09/06 00:34:05;;;;;;;11.23;4.67;;;18.40;67.50;;;;;;5071826;28;20835;-81
2022/09/06 00:36:32;;;;;;;7.57;4.13;;;18.20;72.90;;;;;;5072194;28;20458;-81
2022/09/06 00:38:58;;;;;;;13.63;4.87;;;18.20;71.10;;;;;;5072333;28;20491;-81
2022/09/06 00:41:25;;;;;;;15.53;5.37;;;18.00;81.00;;;;;;5072682;28;20458;-82
2022/09/06 00:43:53;;;;;;;8.80;6.60;;;18.10;84.30;;;;;;5072437;28;20749;-83
2022/09/06 00:46:24;;;;;;;18.40;11.23;;;17.80;95.40;;;;;;5072166;28;20457;-82
2022/09/06 00:48:56;;;;;;;16.83;9.53;;;17.70;99.90;;;;;;5072565;28;20477;-81
2022/09/06 00:51:26;;;;;;;12.53;11.03;;;17.40;99.90;;;;;;5073338;28;20464;-83
2022/09/06 00:53:53;;;;;;;148.40;142.63;;;17.00;99.90;;;;;;5072535;28;20460;-81
2022/09/06 00:56:20;;;;;;;175.67;169.43;;;17.00;99.90;;;;;;5074150;28;20833;-81
2022/09/06 00:58:48;;;;;;;369.00;357.17;;;17.00;99.90;;;;;;5075909;28;20807;-81
2022/09/06 01:01:16;;;;;;;478.87;462.50;;;16.80;99.90;;;;;;5076218;28;20462;-82
2022/09/06 01:03:43;;;;;;;168.77;162.47;;;16.70;99.90;;;;;;5076394;28;20506;-81
2022/09/06 01:06:24;;;;;;;436.57;421.53;;;17.10;99.90;;;;;;5075770;28;20976;-81
2022/09/06 01:09:01;;;;;;;453.97;438.20;;;17.00;99.90;;;;;;5075919;28;20456;-81
2022/09/06 01:11:50;;;;;;;5.63;5.23;;;17.10;99.90;;;;;;5076324;28;20457;-82
2022/09/06 01:14:30;;;;;;;3.40;2.10;;;17.10;99.90;;;;;;5076247;28;20452;-81
2022/09/06 01:17:07;;;;;;;3.40;2.03;;;17.10;99.90;;;;;;5076187;28;20464;-82
2022/09/06 01:20:08;;;;;;;4.93;3.03;;;17.10;99.90;;;;;;5075838;28;20483;-81
2022/09/06 01:23:00;;;;;;;3.40;1.70;;;17.10;99.90;;;;;;5076376;28;21004;-81
2022/09/06 01:25:36;;;;;;;3.40;1.77;;;17.10;99.90;;;;;;5075622;28;20464;-82
2022/09/06 01:28:25;;;;;;;3.60;2.00;;;17.10;99.90;;;;;;5075585;28;20453;-81
2022/09/06 01:30:57;;;;;;;3.40;1.73;;;17.00;99.90;;;;;;5074950;28;20469;-81
2022/09/06 01:33:30;;;;;;;3.40;1.50;;;17.10;99.90;;;;;;5075268;28;20456;-81
2022/09/06 01:36:01;;;;;;;3.43;1.77;;;17.10;99.90;;;;;;5075042;28;20464;-81
2022/09/06 01:38:28;;;;;;;3.40;1.70;;;17.00;99.90;;;;;;5075444;28;20452;-81
2022/09/06 01:40:55;;;;;;;3.50;1.93;;;17.10;99.90;;;;;;5075277;28;20487;-82
2022/09/06 01:43:26;;;;;;;3.50;1.90;;;17.10;99.90;;;;;;5075117;28;20853;-81
2022/09/06 01:46:00;;;;;;;3.50;1.70;;;17.00;99.90;;;;;;5077084;28;20467;-82
2022/09/06 01:48:37;;;;;;;3.47;1.70;;;17.10;99.90;;;;;;5076401;28;20456;-81
2022/09/06 01:51:14;;;;;;;3.53;1.97;;;17.10;99.90;;;;;;5075889;28;20460;-82
2022/09/06 01:53:54;;;;;;;3.50;1.80;;;17.10;99.90;;;;;;5076499;28;20467;-81
2022/09/06 01:56:30;;;;;;;3.60;2.00;;;17.10;99.90;;;;;;5074879;28;20473;-81
2022/09/06 01:59:23;;;;;;;3.50;2.07;;;17.20;99.90;;;;;;5074734;28;20514;-82
2022/09/06 02:02:03;;;;;;;3.57;2.13;;;17.30;99.90;;;;;;5072376;28;20466;-82
2022/09/06 02:04:36;;;;;;;3.70;2.33;;;17.10;99.90;;;;;;5074669;28;20827;-82
2022/09/06 02:07:12;;;;;;;3.60;2.00;;;17.20;99.90;;;;;;5073768;28;20807;-81
2022/09/06 02:09:42;;;;;;;3.70;2.40;;;17.10;99.90;;;;;;5074349;28;20480;-82
2022/09/06 02:12:13;;;;;;;3.60;2.00;;;17.20;99.90;;;;;;5074713;28;20459;-82
2022/09/06 02:14:46;;;;;;;3.60;2.20;;;17.10;99.90;;;;;;5074326;28;20957;-82
2022/09/06 02:17:17;;;;;;;3.60;2.17;;;17.10;99.90;;;;;;5074538;28;20453;-82
2022/09/06 02:19:48;;;;;;;3.60;2.10;;;17.00;99.90;;;;;;5074064;28;20477;-82
2022/09/06 02:22:18;;;;;;;3.60;2.00;;;17.10;99.90;;;;;;5075312;28;20463;-82
2022/09/06 02:24:47;;;;;;;3.50;1.70;;;17.20;99.90;;;;;;5074007;28;20461;-82
2022/09/06 02:27:14;;;;;;;3.43;1.60;;;17.10;99.90;;;;;;5073976;28;20481;-81
2022/09/06 02:29:43;;;;;;;3.50;1.60;;;17.20;99.90;;;;;;5074044;28;20476;-82
2022/09/06 02:32:16;;;;;;;3.50;1.87;;;17.10;99.90;;;;;;5073807;28;20487;-81
2022/09/06 02:34:45;;;;;;;3.50;1.80;;;17.20;99.90;;;;;;5073672;28;20955;-81
2022/09/06 02:37:12;;;;;;;3.50;1.80;;;17.20;99.90;;;;;;5074877;28;20474;-81
2022/09/06 02:39:40;;;;;;;3.60;2.10;;;17.20;99.90;;;;;;5074262;28;20480;-82
2022/09/06 02:42:09;;;;;;;3.50;1.87;;;17.20;99.90;;;;;;5074072;28;20979;-82
2022/09/06 02:44:35;;;;;;;4.03;2.73;;;17.20;99.90;;;;;;5073445;28;20982;-82
2022/09/06 02:47:04;;;;;;;3.50;1.70;;;17.20;99.90;;;;;;5073876;28;20468;-82
2022/09/06 02:49:31;;;;;;;3.50;1.63;;;17.10;99.90;;;;;;5073439;28;20527;-82
2022/09/06 02:51:58;;;;;;;3.90;2.53;;;17.20;99.90;;;;;;5073666;28;20458;-82
2022/09/06 02:54:24;;;;;;;3.60;2.07;;;17.20;99.90;;;;;;5073464;28;20457;-81
2022/09/06 02:56:51;;;;;;;3.60;1.80;;;17.10;99.90;;;;;;5073480;28;20427;-82
2022/09/06 02:59:18;;;;;;;5.80;2.57;;;17.10;99.90;;;;;;5073134;28;21008;-82
2022/09/06 03:01:44;;;;;;;3.50;1.90;;;17.10;99.90;;;;;;5074774;28;20464;-82
2022/09/06 03:04:12;;;;;;;3.60;2.00;;;17.20;99.90;;;;;;5073402;28;20486;-81
2022/09/06 03:06:39;;;;;;;3.50;2.00;;;17.20;99.90;;;;;;5073706;28;20457;-82
2022/09/06 03:09:06;;;;;;;3.70;2.30;;;17.10;99.90;;;;;;5073027;28;20462;-82
2022/09/06 03:11:33;;;;;;;3.70;2.43;;;17.10;99.90;;;;;;5073056;28;20449;-82
2022/09/06 03:13:59;;;;;;;3.57;2.00;;;17.20;99.90;;;;;;5073134;28;20821;-81
2022/09/06 03:16:26;;;;;;;3.60;2.17;;;17.00;99.90;;;;;;5074023;28;20464;-82
2022/09/06 03:18:53;;;;;;;3.57;2.00;;;17.10;99.90;;;;;;5072537;28;20461;-82
2022/09/06 03:21:21;;;;;;;3.60;2.07;;;17.10;99.90;;;;;;5073139;28;20488;-82
2022/09/06 03:23:48;;;;;;;3.70;2.30;;;17.10;99.90;;;;;;5073152;28;20459;-82
2022/09/06 03:26:16;;;;;;;3.60;2.20;;;17.10;99.90;;;;;;5072691;28;20489;-82
2022/09/06 03:28:42;;;;;;;3.70;2.30;;;17.10;99.90;;;;;;5072709;28;20947;-82
2022/09/06 03:31:09;;;;;;;3.67;2.37;;;17.10;99.90;;;;;;5072746;28;20457;-81
2022/09/06 03:33:36;;;;;;;3.70;2.47;;;17.00;99.90;;;;;;5072728;28;20454;-81
2022/09/06 03:36:04;;;;;;;3.80;2.80;;;17.10;99.90;;;;;;5072549;28;20456;-82
2022/09/06 03:38:32;;;;;;;3.60;2.20;;;17.10;99.90;;;;;;5073191;28;20450;-81
2022/09/06 03:40:59;;;;;;;3.70;2.60;;;17.10;99.90;;;;;;5072702;28;20489;-82
2022/09/06 03:43:27;;;;;;;3.60;2.20;;;17.10;99.90;;;;;;5072745;28;20464;-82
2022/09/06 03:45:56;;;;;;;3.70;2.50;;;17.10;99.90;;;;;;5072644;28;20484;-82
2022/09/06 03:48:25;;;;;;;3.80;2.70;;;17.10;99.90;;;;;;5072828;28;20535;-82
2022/09/06 03:50:54;;;;;;;3.70;2.40;;;17.10;99.90;;;;;;5072374;28;20477;-82
2022/09/06 03:53:22;;;;;;;3.70;2.50;;;17.00;99.90;;;;;;5072896;28;20829;-80
2022/09/06 03:55:52;;;;;;;3.80;2.63;;;17.00;99.90;;;;;;5072262;28;20453;-81
2022/09/06 03:58:21;;;;;;;3.80;2.87;;;17.00;99.90;;;;;;5072807;28;20456;-82
2022/09/06 04:00:48;;;;;;;3.87;2.97;;;16.80;99.90;;;;;;5072510;28;20479;-82
2022/09/06 04:03:18;;;;;;;4.00;3.07;;;16.80;99.90;;;;;;5079262;28;20463;-83
2022/09/06 04:05:45;;;;;;;3.70;2.30;;;16.70;99.90;;;;;;5079538;28;20456;-84
2022/09/06 04:08:11;;;;;;;3.80;2.60;;;16.50;99.90;;;;;;5080181;28;20455;-84
2022/09/06 04:10:39;;;;;;;3.73;2.53;;;16.50;99.90;;;;;;5079482;28;20488;-84
2022/09/06 04:13:07;;;;;;;3.90;3.00;;;16.50;99.90;;;;;;5079641;28;20491;-84
2022/09/06 04:15:33;;;;;;;3.70;2.50;;;16.30;99.90;;;;;;5078604;28;20455;-84
2022/09/06 04:18:00;;;;;;;3.80;2.77;;;16.30;99.90;;;;;;5079037;28;20452;-84
2022/09/06 04:20:27;;;;;;;3.80;2.70;;;16.30;99.90;;;;;;5078827;28;20490;-84
2022/09/06 04:22:54;;;;;;;3.87;2.80;;;16.20;99.90;;;;;;5079622;28;20452;-84
2022/09/06 04:25:20;;;;;;;3.80;2.80;;;16.10;99.90;;;;;;5079404;28;20449;-84
2022/09/06 04:27:47;;;;;;;3.80;2.70;;;16.00;99.90;;;;;;5079665;28;20460;-83
2022/09/06 04:30:15;;;;;;;3.87;2.83;;;16.00;99.90;;;;;;5079284;28;20466;-84
2022/09/06 04:32:42;;;;;;;3.80;2.80;;;15.80;99.90;;;;;;5084559;28;20451;-83
2022/09/06 04:35:09;;;;;;;4.00;3.30;;;15.60;99.90;;;;;;5083050;28;20461;-84
2022/09/06 04:37:36;;;;;;;3.80;2.70;;;15.50;99.90;;;;;;5083082;28;20451;-84
2022/09/06 04:40:03;;;;;;;3.90;2.80;;;15.50;99.90;;;;;;5082968;28;20481;-83
2022/09/06 04:42:30;;;;;;;3.80;2.80;;;15.60;99.90;;;;;;5083207;28;20830;-84
2022/09/06 04:44:56;;;;;;;4.00;3.33;;;15.70;99.90;;;;;;5082520;28;20457;-85
2022/09/06 04:47:25;;;;;;;3.90;3.27;;;15.70;99.90;;;;;;5082607;28;20451;-86
2022/09/06 04:49:52;;;;;;;4.03;3.53;;;15.50;99.90;;;;;;5082571;28;20853;-83
2022/09/06 04:52:19;;;;;;;3.90;3.10;;;15.50;99.90;;;;;;5082430;28;20447;-83
2022/09/06 04:54:46;;;;;;;4.00;3.60;;;15.50;99.90;;;;;;5081962;28;20461;-86
2022/09/06 04:57:12;;;;;;;4.00;3.50;;;15.40;99.90;;;;;;5081890;28;20465;-84
2022/09/06 04:59:39;;;;;;;4.13;3.73;;;15.30;99.90;;;;;;5083092;28;20473;-83
2022/09/06 05:02:06;;;;;;;4.00;3.50;;;15.30;99.90;;;;;;5082864;28;20481;-83
2022/09/06 05:04:34;;;;;;;3.90;3.50;;;15.30;99.90;;;;;;5083390;28;20450;-84
2022/09/06 05:07:12;;;;;;;4.50;4.10;;;15.30;99.90;;;;;;5082507;28;20446;-86
2022/09/06 05:09:39;;;;;;;3.90;3.40;;;15.30;99.90;;;;;;5135456;22;20477;-82
2022/09/06 05:12:06;;;;;;;3.90;3.40;;;15.20;99.90;;;;;;5057586;28;20452;-80
2022/09/06 05:14:33;;;;;;;4.00;3.60;;;15.30;99.90;;;;;;5057349;28;20455;-81
2022/09/06 05:17:00;;;;;;;4.57;4.17;;;15.50;99.90;;;;;;5057048;28;20455;-78
2022/09/06 05:19:27;;;;;;;4.13;3.73;;;15.30;99.90;;;;;;5057294;28;20451;-79
2022/09/06 05:21:55;;;;;;;4.00;3.60;;;15.40;99.90;;;;;;5058074;28;20481;-79
2022/09/06 05:24:22;;;;;;;4.57;4.17;;;15.40;99.90;;;;;;5058142;28;20458;-79
2022/09/06 05:26:50;;;;;;;4.30;3.90;;;15.30;99.90;;;;;;5058490;28;20461;-81
2022/09/06 05:29:17;;;;;;;4.00;3.60;;;15.30;99.90;;;;;;5057988;28;20500;-82
2022/09/06 05:31:44;;;;;;;4.20;3.80;;;15.20;99.90;;;;;;5057216;28;20474;-82
2022/09/06 05:34:12;;;;;;;4.20;3.80;;;15.20;99.90;;;;;;5057714;28;20863;-82
2022/09/06 05:36:40;;;;;;;4.50;4.10;;;15.20;99.90;;;;;;5057320;28;20480;-80
2022/09/06 05:39:08;;;;;;;4.93;4.53;;;15.20;99.90;;;;;;5058230;28;20455;-81
2022/09/06 05:41:35;;;;;;;4.90;4.50;;;15.20;99.90;;;;;;5056810;28;20480;-81
2022/09/06 05:44:02;;;;;;;5.30;4.80;;;15.40;99.90;;;;;;5056265;28;20456;-81
2022/09/06 05:46:29;;;;;;;5.20;4.80;;;15.30;99.90;;;;;;5057405;28;20898;-81
2022/09/06 05:48:59;;;;;;;5.20;4.80;;;15.50;99.90;;;;;;5056598;28;20458;-80
2022/09/06 05:51:26;;;;;;;5.37;4.97;;;15.60;99.90;;;;;;5057562;28;20483;-82
2022/09/06 05:53:53;;;;;;;6.83;6.33;;;15.60;99.90;;;;;;5056378;28;20455;-81
2022/09/06 05:56:22;;;;;;;6.47;5.97;;;15.70;99.90;;;;;;5056932;28;20463;-82
2022/09/06 05:58:48;;;;;;;6.50;6.00;;;15.80;99.90;;;;;;5057465;28;20466;-81
2022/09/06 06:01:17;;;;;;;6.30;5.80;;;15.80;99.90;;;;;;5056077;28;20852;-82
2022/09/06 06:03:50;;;;;;;6.60;6.10;;;15.90;99.90;;;;;;5057324;28;20452;-81
2022/09/06 06:06:17;;;;;;;7.00;6.50;;;16.10;99.90;;;;;;5056128;28;20960;-82
2022/09/06 06:08:44;;;;;;;7.27;6.77;;;16.10;99.90;;;;;;5057525;28;20501;-82
2022/09/06 06:11:11;;;;;;;7.43;6.93;;;16.20;99.90;;;;;;5056731;28;20491;-82
2022/09/06 06:13:40;;;;;;;8.10;7.60;;;16.30;99.90;;;;;;5057335;28;20446;-82
2022/09/06 06:16:07;;;;;;;7.73;7.23;;;16.30;99.90;;;;;;5057186;28;20448;-81
2022/09/06 06:18:34;;;;;;;8.47;7.97;;;16.50;99.90;;;;;;5056534;28;20823;-82
2022/09/06 06:21:12;;;;;;;9.93;9.33;;;16.60;99.90;;;;;;5056560;28;20482;-82
2022/09/06 06:23:39;;;;;;;8.70;8.20;;;16.70;99.90;;;;;;5055896;28;20971;-83
2022/09/06 06:26:07;;;;;;;8.70;8.20;;;16.80;99.90;;;;;;5055373;28;20532;-80
2022/09/06 06:28:34;;;;;;;9.50;8.90;;;16.90;99.90;;;;;;5055413;28;20476;-79
2022/09/06 06:31:02;;;;;;;10.27;9.67;;;17.00;99.90;;;;;;5055835;28;20854;-80
2022/09/06 06:33:29;;;;;;;9.30;8.70;;;17.00;99.90;;;;;;5056066;28;20451;-80
2022/09/06 06:36:00;;;;;;;9.90;9.30;;;17.30;99.90;;;;;;5056157;28;20454;-80
2022/09/06 06:38:30;;;;;;;10.20;9.60;;;17.30;99.90;;;;;;5057747;28;20455;-80
2022/09/06 06:40:57;;;;;;;10.60;10.00;;;17.30;99.90;;;;;;5056925;28;20482;-80
2022/09/06 06:43:24;;;;;;;12.00;11.30;;;17.40;99.90;;;;;;5058305;28;20455;-80
2022/09/06 06:45:51;;;;;;;11.20;10.60;;;17.50;99.90;;;;;;5055998;28;20461;-80
2022/09/06 06:48:19;;;;;;;12.93;12.23;;;17.60;99.90;;;;;;5056255;28;20469;-80
2022/09/06 06:50:46;;;;;;;12.30;11.60;;;17.70;99.90;;;;;;5055869;28;20851;-80
2022/09/06 06:53:13;;;;;;;12.03;11.40;;;17.80;99.90;;;;;;5052930;28;20459;-80
2022/09/06 06:55:45;;;;;;;12.40;11.70;;;17.90;99.90;;;;;;5054301;28;20461;-80
2022/09/06 06:58:11;;;;;;;12.37;11.67;;;18.00;99.90;;;;;;5055201;28;20458;-80
2022/09/06 07:00:39;;;;;;;13.20;12.50;;;18.10;99.90;;;;;;5054913;28;20472;-80
2022/09/06 07:03:06;;;;;;;12.10;11.40;;;18.20;99.90;;;;;;5012147;28;20480;-80
2022/09/06 07:05:35;;;;;;;12.63;11.93;;;18.30;99.90;;;;;;4994222;28;20547;-80
2022/09/06 07:08:01;;;;;;;11.50;10.90;;;18.50;99.90;;;;;;4995162;28;20457;-80
2022/09/06 07:10:28;;;;;;;11.73;11.13;;;18.60;99.90;;;;;;4994327;28;20493;-80
2022/09/06 07:12:55;;;;;;;11.90;11.30;;;18.60;99.90;;;;;;4994555;28;20457;-80
2022/09/06 07:15:22;;;;;;;11.60;11.00;;;18.80;99.90;;;;;;4994269;28;20463;-80
2022/09/06 07:17:48;;;;;;;11.70;11.10;;;18.90;99.90;;;;;;4994194;28;20460;-79
2022/09/06 07:20:15;;;;;;;11.60;11.00;;;19.00;99.90;;;;;;4994501;28;20479;-80
2022/09/06 07:22:43;;;;;;;12.13;11.43;;;19.10;99.90;;;;;;4994634;28;20487;-80
2022/09/06 07:25:11;;;;;;;11.30;10.70;;;19.10;99.90;;;;;;4994227;28;20463;-80
2022/09/06 07:27:38;;;;;;;11.13;10.53;;;19.40;99.90;;;;;;4994659;28;20939;-80
2022/09/06 07:30:06;;;;;;;10.50;9.90;;;19.40;99.90;;;;;;4995444;28;20479;-80
2022/09/06 07:32:34;;;;;;;10.77;10.17;;;19.50;99.90;;;;;;4995654;28;20457;-80
2022/09/06 07:35:01;;;;;;;11.13;10.53;;;19.70;99.90;;;;;;4994147;28;20459;-80
2022/09/06 07:37:27;;;;;;;11.30;10.70;;;19.80;99.90;;;;;;4994591;28;20486;-81
2022/09/06 07:39:55;;;;;;;10.80;10.20;;;20.00;99.90;;;;;;5000764;28;20475;-83
2022/09/06 07:42:22;;;;;;;10.27;9.67;;;20.00;99.90;;;;;;5002785;28;20499;-83
2022/09/06 07:44:49;;;;;;;9.07;8.47;;;20.10;99.90;;;;;;4997604;28;20456;-81
2022/09/06 07:47:16;;;;;;;8.77;8.20;;;20.20;99.90;;;;;;4992016;28;20454;-79
2022/09/06 07:49:43;;;;;;;8.00;7.50;;;20.30;99.90;;;;;;4991976;28;20487;-81
2022/09/06 07:52:10;;;;;;;7.70;7.20;;;20.40;99.90;;;;;;4991132;28;20457;-79
2022/09/06 07:54:36;;;;;;;6.90;6.40;;;20.50;99.90;;;;;;4991746;28;20828;-79
2022/09/06 07:57:05;;;;;;;9.57;8.87;;;20.90;99.90;;;;;;4993014;28;20457;-82
2022/09/06 07:59:32;;;;;;;13.17;12.47;;;21.10;99.90;;;;;;4995709;28;20575;-81
2022/09/06 08:01:58;;;;;;;16.20;15.40;;;21.40;99.90;;;;;;4995452;28;20477;-81
2022/09/06 08:04:25;;;;;;;20.20;19.30;;;21.70;99.20;;;;;;4996938;28;20830;-83
2022/09/06 08:06:52;;;;;;;19.30;18.40;;;22.00;96.50;;;;;;5011296;28;20460;-84
2022/09/06 08:09:19;;;;;;;6.10;5.60;;;22.30;96.10;;;;;;4975958;28;1053706;-84
2022/09/06 08:11:46;;;;;;;4.43;4.03;;;22.60;93.30;;;;;;5013434;28;20442;-84
2022/09/06 08:14:14;;;;;;;3.70;2.40;;;22.70;90.20;;;;;;5013512;28;20458;-85
2022/09/06 08:16:41;;;;;;;4.10;3.60;;;22.90;89.30;;;;;;5010469;28;20993;-85
2022/09/06 08:19:09;;;;;;;3.40;1.57;;;23.30;89.00;;;;;;5012433;28;20453;-86
2022/09/06 08:21:36;;;;;;;3.20;0.80;;;23.80;85.10;;;;;;5012808;28;20464;-85
2022/09/06 08:24:04;;;;;;;3.10;0.60;;;24.00;81.20;;;;;;5012458;28;20456;-85
2022/09/06 08:26:33;;;;;;;3.10;0.60;;;24.10;77.20;;;;;;5003919;28;20460;-83
2022/09/06 08:29:01;;;;;;;3.10;0.80;;;24.40;77.60;;;;;;5003730;28;20460;-83
2022/09/06 08:31:30;;;;;;;3.10;0.60;;;24.70;74.40;;;;;;5006761;28;20437;-84
2022/09/06 08:33:58;;;;;;;3.60;1.13;;;24.80;69.10;;;;;;5007940;28;20450;-83
2022/09/06 08:36:28;;;;;;;3.10;0.60;;;24.90;66.30;;;;;;5007863;28;20460;-84
2022/09/06 08:38:55;;;;;;;3.17;0.70;;;25.30;64.40;;;;;;5008192;28;20460;-85
2022/09/06 08:41:26;;;;;;;3.30;0.80;;;25.40;66.10;;;;;;5007957;28;20481;-84
2022/09/06 08:43:55;;;;;;;3.10;0.57;;;25.50;60.60;;;;;;5007727;28;20817;-84
2022/09/06 08:46:28;;;;;;;3.30;0.80;;;25.80;60.10;;;;;;5008318;28;20578;-84
2022/09/06 08:48:56;;;;;;;3.40;1.07;;;26.00;56.20;;;;;;5008606;28;20452;-86
2022/09/06 08:51:56;;;;;;;3.23;0.60;;;26.20;54.60;;;;;;5008855;28;20473;-85
2022/09/06 08:54:29;;;;;;;3.37;0.70;;;26.50;51.90;;;;;;5008841;28;20466;-85
2022/09/06 08:57:05;;;;;;;3.20;0.50;;;26.70;51.20;;;;;;5007329;28;20461;-84
2022/09/06 08:59:38;;;;;;;3.37;1.00;;;27.00;50.40;;;;;;5007831;28;21017;-84
2022/09/06 09:02:11;;;;;;;3.23;0.60;;;27.00;45.00;;;;;;5004594;28;20502;-83
2022/09/06 09:04:44;;;;;;;3.23;0.53;;;27.20;43.00;;;;;;4998225;28;20436;-83
2022/09/06 09:07:26;;;;;;;3.30;0.60;;;27.30;41.60;;;;;;4999128;28;20490;-82
2022/09/06 09:09:54;;;;;;;3.20;0.50;;;27.60;41.80;;;;;;4998846;28;20485;-83
2022/09/06 09:12:23;;;;;;;3.30;0.60;;;28.20;40.50;;;;;;4999054;28;20453;-83
2022/09/06 09:14:56;;;;;;;3.50;0.97;;;28.40;34.20;;;;;;4998948;28;20449;-84
2022/09/06 09:17:27;;;;;;;3.30;0.53;;;28.60;33.20;;;;;;5000662;28;20465;-83
2022/09/06 09:19:55;;;;;;;3.27;0.50;;;28.90;33.50;;;;;;5003047;28;20658;-83
2022/09/06 09:22:24;;;;;;;3.30;0.50;;;29.00;30.70;;;;;;5003536;28;20825;-85
2022/09/06 09:24:52;;;;;;;4.10;1.37;;;29.10;28.30;;;;;;5005595;28;20453;-85
2022/09/06 09:27:24;;;;;;;3.33;0.60;;;28.80;26.80;;;;;;5011921;28;20454;-84
2022/09/06 09:29:59;;;;;;;3.33;0.57;;;29.00;25.90;;;;;;5010277;28;20465;-83
2022/09/06 09:32:30;;;;;;;3.40;0.80;;;29.50;23.00;;;;;;5012723;28;20450;-83
2022/09/06 09:35:16;;;;;;;3.30;0.60;;;29.20;24.40;;;;;;5008797;28;20468;-83
2022/09/06 09:37:43;;;;;;;3.30;0.60;;;29.10;21.30;;;;;;5000916;28;20455;-84
2022/09/06 09:40:14;;;;;;;3.30;0.50;;;29.80;22.10;;;;;;5001338;28;20452;-83
2022/09/06 09:42:42;;;;;;;3.30;0.50;;;30.50;19.00;;;;;;5000995;28;20905;-83
2022/09/06 09:45:25;;;;;;;3.87;1.17;;;30.30;15.40;;;;;;5001310;28;20429;-83
2022/09/06 09:47:51;;;;;;;3.30;0.50;;;30.80;14.80;;;;;;5001768;28;20476;-84
2022/09/06 09:50:31;;;;;;;3.40;0.50;;;30.90;11.40;;;;;;5000466;28;21017;-83
2022/09/06 09:53:07;;;;;;;3.40;0.60;;;30.70;11.20;;;;;;5000200;28;20474;-83
2022/09/06 09:55:34;;;;;;;3.40;0.50;;;31.30;11.60;;;;;;5000613;28;20459;-83
2022/09/06 09:58:00;;;;;;;3.40;0.50;;;31.20;8.40;;;;;;5001103;28;20436;-83
2022/09/06 10:00:38;;;;;;;3.43;0.60;;;31.30;6.50;;;;;;5001112;28;20457;-83
2022/09/06 10:03:12;;;;;;;3.40;0.50;;;31.40;4.50;;;;;;5000298;28;20856;-83
2022/09/06 10:05:42;;;;;;;3.40;0.50;;;31.40;5.00;;;;;;5000586;28;20457;-84
2022/09/06 10:08:11;;;;;;;3.40;0.50;;;31.40;5.60;;;;;;4999865;28;20925;-83
2022/09/06 10:10:41;;;;;;;3.40;0.50;;;31.50;3.80;;;;;;5000989;28;20482;-83
2022/09/06 10:13:19;;;;;;;3.60;0.90;;;32.00;2.70;;;;;;4999509;28;20476;-84
2022/09/06 10:15:46;;;;;;;3.40;0.60;;;32.00;2.20;;;;;;5001716;28;20432;-83
2022/09/06 10:18:27;;;;;;;3.40;0.50;;;31.90;2.10;;;;;;5000475;28;20435;-83
2022/09/06 10:20:59;;;;;;;3.40;0.50;;;32.00;1.90;;;;;;5001321;28;20451;-85
2022/09/06 10:23:36;;;;;;;3.40;0.50;;;32.20;1.00;;;;;;5000132;28;20433;-85
2022/09/06 10:26:08;;;;;;;3.40;0.50;;;31.70;1.00;;;;;;5000785;28;20449;-85
2022/09/06 10:28:37;;;;;;;3.60;0.90;;;31.80;1.00;;;;;;5001461;28;21034;-86
2022/09/06 10:31:28;;;;;;;3.40;0.50;;;32.20;1.00;;;;;;5003392;28;20532;-86
2022/09/06 10:34:07;;;;;;;3.40;0.50;;;32.50;1.00;;;;;;5003367;28;20482;-86
2022/09/06 10:36:37;;;;;;;3.40;0.50;;;33.00;1.00;;;;;;5003021;28;20433;-86
2022/09/06 10:39:13;;;;;;;3.70;0.70;;;32.70;1.00;;;;;;5002130;28;20432;-86
2022/09/06 10:41:57;;;;;;;3.50;0.63;;;32.90;1.00;;;;;;5002700;28;20817;-86
2022/09/06 10:44:38;;;;;;;3.50;0.70;;;33.20;1.00;;;;;;4998608;28;20833;-86
2022/09/06 10:47:10;;;;;;;3.40;0.50;;;32.80;1.00;;;;;;4995392;28;20439;-86
2022/09/06 10:50:04;;;;;;;3.40;0.60;;;33.70;1.00;;;;;;5040526;23;20491;-88
2022/09/06 10:56:20;;;;;;;3.40;0.50;;;34.90;1.00;;;;;;4971960;28;20831;-88
2022/09/06 10:59:06;;;;;;;3.50;0.50;;;35.30;1.00;;;;;;4974412;28;20945;-89
2022/09/06 11:01:44;;;;;;;3.43;0.50;;;35.00;1.00;;;;;;4974126;28;20438;-88
2022/09/06 11:04:19;;;;;;;3.40;0.50;;;35.20;1.00;;;;;;4975401;28;20461;-89
2022/09/06 11:06:51;;;;;;;3.47;0.50;;;34.90;1.00;;;;;;4974293;28;20457;-88
2022/09/06 11:09:26;;;;;;;3.40;0.50;;;35.00;1.00;;;;;;4974009;28;20457;-89
2022/09/06 11:12:07;;;;;;;3.47;0.60;;;34.90;1.00;;;;;;4973982;28;20462;-88
2022/09/06 11:14:35;;;;;;;3.43;0.60;;;35.50;1.00;;;;;;4973802;28;20428;-88
2022/09/06 11:17:08;;;;;;;3.40;0.50;;;34.90;1.00;;;;;;4974205;28;20456;-88
2022/09/06 11:19:41;;;;;;;3.43;0.50;;;35.40;1.00;;;;;;4973939;28;20475;-91
2022/09/06 11:22:29;;;;;;;6.83;1.90;;;35.60;1.00;;;;;;4974182;28;20454;-89
2022/09/06 11:25:26;;;;;;;5.70;2.40;;;35.90;1.00;;;;;;4973841;28;20433;-88
2022/09/06 11:27:56;;;;;;;7.87;2.10;;;35.80;1.00;;;;;;4967442;28;20430;-88
2022/09/06 11:30:30;;;;;;;6.33;2.77;;;36.00;1.00;;;;;;4973827;28;20445;-88
2022/09/06 11:33:34;;;;;;;6.27;2.60;;;36.80;1.00;;;;;;4974136;28;20489;-88
2022/09/06 11:36:29;;;;;;;6.80;2.13;;;36.50;1.00;;;;;;4973591;28;20496;-88
2022/09/06 11:39:09;;;;;;;5.90;1.90;;;36.70;1.00;;;;;;4974261;28;20529;-88
2022/09/06 11:41:44;;;;;;;7.33;2.63;;;37.00;1.00;;;;;;4974234;28;20470;-90
2022/09/06 11:44:56;;;;;;;6.10;2.00;;;36.60;1.00;;;;;;4973855;28;20433;-89
2022/09/06 11:47:37;;;;;;;4.30;1.73;;;36.80;1.00;;;;;;4973872;28;20430;-89
2022/09/06 11:50:46;;;;;;;7.57;2.10;;;36.70;1.00;;;;;;4973622;28;20478;-89
2022/09/06 11:53:16;;;;;;;8.53;2.07;;;35.30;1.00;;;;;;4973724;28;20461;-89
2022/09/06 11:55:45;;;;;;;6.23;1.80;;;34.60;1.00;;;;;;4973360;28;20462;-90
2022/09/06 11:58:25;;;;;;;10.20;2.40;;;34.50;1.00;;;;;;4973938;28;20429;-89
2022/09/06 12:01:25;;;;;;;8.70;1.80;;;34.70;1.00;;;;;;4973566;28;20457;-89
2022/09/06 12:04:05;;;;;;;7.10;2.40;;;34.90;1.00;;;;;;4971389;28;20586;-88
2022/09/06 12:06:35;;;;;;;9.77;2.27;;;34.50;1.00;;;;;;4973322;28;20436;-89
2022/09/06 12:09:02;;;;;;;8.10;2.27;;;35.80;1.00;;;;;;4973494;28;20455;-89
2022/09/06 12:11:35;;;;;;;9.20;1.93;;;35.60;1.00;;;;;;4972360;28;20479;-89
2022/09/06 12:14:04;;;;;;;5.40;1.80;;;35.60;1.00;;;;;;4953588;29;20986;-90
2022/09/06 12:17:10;;;;;;;9.10;1.90;;;35.70;1.00;;;;;;4953924;29;20466;-90
2022/09/06 12:19:45;;;;;;;5.27;2.00;;;35.10;1.00;;;;;;4953831;29;20566;-91
2022/09/06 12:23:05;;;;;;;10.83;1.97;;;35.40;1.00;;;;;;4953917;29;20433;-90
2022/09/06 12:25:58;;;;;;;7.60;1.97;;;35.90;1.00;;;;;;4953267;28;20935;-92
2022/09/06 12:28:35;;;;;;;8.27;2.30;;;35.90;1.00;;;;;;4953424;29;20457;-90
2022/09/06 12:31:25;;;;;;;10.07;2.70;;;36.50;1.00;;;;;;4953949;29;20507;-90
2022/09/06 12:33:53;;;;;;;5.57;1.90;;;37.30;1.00;;;;;;4954188;28;20476;-90
2022/09/06 12:36:28;;;;;;;6.57;2.17;;;37.50;1.00;;;;;;4954242;29;20874;-88
2022/09/06 12:38:56;;;;;;;6.37;1.77;;;37.50;1.00;;;;;;4953700;29;20465;-91
2022/09/06 12:41:24;;;;;;;5.17;2.00;;;37.00;1.00;;;;;;4954620;29;20501;-90
2022/09/06 12:43:51;;;;;;;6.40;1.70;;;37.10;1.00;;;;;;4953672;29;20949;-91
2022/09/06 12:46:18;;;;;;;5.53;1.80;;;36.90;1.00;;;;;;4956809;29;20842;-85
2022/09/06 12:49:04;;;;;;;5.17;1.70;;;35.40;1.00;;;;;;4957185;29;20806;-85
2022/09/06 12:51:32;;;;;;;6.13;1.80;;;34.50;1.00;;;;;;4953993;28;20495;-85
2022/09/06 12:54:01;;;;;;;7.83;1.80;;;35.10;1.00;;;;;;4957827;29;21000;-84
2022/09/06 12:56:29;;;;;;;10.33;2.13;;;35.20;1.00;;;;;;4958052;29;20466;-86
2022/09/06 12:59:15;;;;;;;7.70;1.90;;;34.80;1.00;;;;;;4974075;29;20451;-86
2022/09/06 13:01:48;;;;;;;10.00;1.90;;;34.90;1.00;;;;;;4975411;29;20491;-86
2022/09/06 13:04:23;;;;;;;6.00;1.90;;;34.30;1.00;;;;;;4975021;29;20427;-86
2022/09/06 13:06:51;;;;;;;5.00;1.20;;;35.00;1.00;;;;;;4976008;29;20426;-86
2022/09/06 13:09:20;;;;;;;9.60;2.43;;;35.80;1.00;;;;;;4975480;29;20466;-85
2022/09/06 13:11:50;;;;;;;4.90;2.10;;;36.40;1.00;;;;;;4976972;29;20462;-85